Terminal Aerodrome Forecast
Issued by NWS Portland, OR

Home | Current Version | Previous Version | Text Only | Print | Product List | Glossary On
Versions: 1 2 3 4 5 6 7 8 9 10 11 12 13 14 15 16 17 18 19 20
000
FTUS46 KPQR 170539
TAFHIO
TAF
KHIO 170539Z 1706/1806 VRB03KT 3SM BR OVC008
     FM171000 VRB03KT 2SM -RA BR BKN003 OVC007
     FM172100 21003KT 4SM -SHRA SCT007 OVC015=

USA.gov is the U.S. government's official web portal to all federal, state and local government web resources and services.